Noah Kobel

Chief Scout - Lugano
20 Feb 2028
Sunday
Process

Personality

Adaptability (3) Ambition (16) Controversy (6) Loyalty (7) Pressure (12) Professionalism (15) Sportsmanship (14) Temperament (19)

Profile

Coaching Style Democratic
License National A
Determination 8
Man Management 5
Motivating 9
Discipline 4
Job Satisfaction
100%
Fatigue
0%
Role Chief Scout
Wage 22.3K p/w
Contract 14.03.2030

Performance

Behaviour Good
Training Effectiveness
34%
Player Development
55%
Injury Prevention
25%
Tactical Implementation
30%

Recent Events

Attended a recruitment meeting now
Attended a recruitment meeting now
Attended a recruitment meeting now
Attended a recruitment meeting now
Recommended a transfer target now
Recommended a transfer target 7d ago
Recommended a transfer target 7d ago
Recommended a transfer target 7d ago

Currently Monitoring

136
Player Club Status Ability Confidence Watched Last Observed Latest Vote
Enrique Aguilar Red Bull Salzburg Active 91 / 109 40% 3 18.01.2028 -
Rio Ngumoha Stockport County Active 131 / 153 40% 1 18.01.2028 -
Olivier Mambwa Young Boys Active 109 / 120 55% 1 17.01.2028 -
Themba Dala Ajax Cape Town Active 136 / 137 40% 5 12.01.2028 -
Cundo Leicester City Active 134 / 148 40% 1 12.01.2028 -
Mao Hosoya Everton Active 134 / 135 67% 1 01.01.2028 Approve
Rilind Nivokazi Sion Lost 118 / 118 67% 1 01.01.2028 -
Lewis Morgan SuperSport United Negotiating 126 / 126 67% 1 01.01.2028 -
Lévy Néne FC Nordsjaelland Active 107 / 126 40% 2 28.12.2027 -
Jayden Danns Wigan Athletic Active 135 / 139 40% 4 28.12.2027 -
Seymour Reid New York City Active 84 / 98 40% 3 27.12.2027 -
Nicolás Azambuja Cádiz Active 122 / 128 40% 2 26.12.2027 -
Dušan Žagar IMT Active 90 / 102 40% 1 25.12.2027 -
Timofey Simanenka Gomel Active 94 / 106 40% 1 24.12.2027 -
Octávio Silva Artigas Active 96 / 95 40% 2 23.12.2027 -
Kirill Cheburakov Rostov Active 67 / 82 40% 1 22.12.2027 -
Ryan Kavuma-McQueen Accrington Stanley Active 111 / 129 40% 3 20.12.2027 -
Jake Evans Colchester United Active 104 / 119 40% 2 20.12.2027 -
Zak Lovelace Crewe Alexandra Active 104 / 116 40% 1 19.12.2027 -
Adama Goïta Remo Stars Active 82 / 104 40% 7 18.12.2027 -
Mamadou Doumbia FC Lorient Active 133 / 129 40% 2 18.12.2027 -
Chimobi Igwilo Rangers International Active 100 / 92 40% 4 17.12.2027 -
Luca Williams-Barnett Tranmere Rovers Active 120 / 132 40% 3 13.12.2027 -
Víctor Guzmán Sporting CP Active 92 / 114 40% 3 11.12.2027 -
Elijas Gunnergård Ortan Atvidaberg Active 94 / 92 40% 1 11.12.2027 -
Siyabonga Mabena Chippa United Active 129 / 130 40% 1 09.12.2027 -
Ognjen Bondžulić Mladost Lucani Active 98 / 116 40% 4 06.12.2027 -
Axel Kayombo Sturm Graz Active 107 / 115 40% 3 02.12.2027 -
Ramiro Jara Racing Active 98 / 99 40% 1 26.11.2027 -
Petcho Camara Haugesund Active 88 / 97 40% 1 24.11.2027 -
Ante Brekalo Zadar Active 91 / 112 40% 1 23.11.2027 -
Baylee Dipepa Norwich City Active 101 / 114 40% 3 18.11.2027 -
Zannetos Savva Albirex Niigata Active 110 / 106 40% 3 15.11.2027 -
Mikhail Alexandrov Dinamo Brest Active 99 / 88 40% 1 11.11.2027 -
Leo Rimac Koper Active 107 / 120 40% 1 10.11.2027 -
Nahuel Olmedo Real Cartagena Active 78 / 100 40% 1 10.11.2027 -
Leon Grgić Sturm Graz Active 131 / 135 40% 5 06.11.2027 -
Felipe Serrés Wanderers Active 87 / 101 40% 1 04.11.2027 -
Iwan Morgan Grimsby Town Active 125 / 128 40% 2 03.11.2027 -
Marco Bürki Thun Active 128 / 123 55% 1 12.07.2027 -
Dilan Neves Benfica Active 82 / 89 40% 1 14.06.2027 -
Khama Dolly Utrecht Active 123 / 124 67% 1 01.06.2027 Approve
Razvan Mitrita San Diego Football Club Active 118 / 120 66% 1 01.06.2027 Approve
Franz-Ethan Meichtry Genoa Active 124 / 130 40% 2 31.05.2027 -
Matvii Ponomarenko Dynamo Kyiv Active 132 / 138 40% 5 30.05.2027 -
Luke Baartman ES Mostaganem Active 95 / 112 40% 4 29.05.2027 -
Fletcher Holman Swindon Town Active 78 / 98 40% 3 29.05.2027 -
Mateus Mané Manchester United Active 138 / 134 40% 6 28.05.2027 -
Tiziano Dornell Danubio Active 97 / 126 40% 5 28.05.2027 -
Leo Castledine Middlesbrough Active 135 / 130 40% 4 27.05.2027 -
Ben Ahmed Kohili Paradou Active 88 / 98 40% 3 27.05.2027 -
Darlvin Yeboah Bechem United Active 80 / 100 40% 2 23.05.2027 -
Borna Knezović Casarano Active 103 / 113 40% 1 22.05.2027 -
Alagie Wally Veres Active 80 / 103 40% 1 21.05.2027 -
Riley Owen Trento Active 97 / 110 40% 1 20.05.2027 -
Caleb Yirenkyi Coventry City Active 141 / 144 40% 1 18.05.2027 -
Serge Daura Cotonsport Garoua Active 87 / 91 40% 2 15.05.2027 -
Amaury Morales Pumas UNAM Active 107 / 122 40% 5 12.05.2027 -
Ezekiel Kwame Alladoh Philadelphia Union Active 116 / 116 40% 1 11.05.2027 -
Samuele di Benedetto Bari Active 107 / 115 40% 1 07.05.2027 -
André Miranda Porto Active 91 / 106 40% 1 06.05.2027 -
Leandro Martins Benfica Active 103 / 90 40% 2 03.05.2027 -
Monty Batlhabane Polokwane City Active 92 / 105 40% 1 03.05.2027 -
David Ozoh Derby County Active 113 / 130 40% 1 30.04.2027 -
Shea Lacey Wolverhampton Active 126 / 124 40% 1 30.04.2027 -
Gustavo Ferreira Benfica Active 81 / 88 40% 1 29.04.2027 -
Jesús Rodríguez Como Active 145 / 139 40% 1 28.04.2027 -
Martim Cunha Porto Active 104 / 110 40% 1 28.04.2027 -
Dramane Kamagaté USM Alger Active 103 / 102 40% 3 25.04.2027 -
Thomas Waddingham Portsmouth Active 114 / 118 40% 4 21.04.2027 -
Anestis Mythou PAOK Active 108 / 117 40% 2 21.04.2027 -
Hazeem Bakre Crawley Town Active 91 / 79 40% 1 18.04.2027 -
Lwanda Mbanjwa Maritzburg United Active 80 / 100 40% 3 13.04.2027 -
Lynden Edhart Cambuur Active 114 / 118 40% 1 12.04.2027 -
Markus Jensen Nacional Active 115 / 110 40% 1 09.04.2027 -
Federico Serra Arezzo Active 97 / 97 40% 1 08.04.2027 -
Jofre Torrents Ajax Active 116 / 122 40% 1 07.04.2027 -
Araphat Mohammed Berekum Chelsea Active 113 / 115 40% 1 07.04.2027 -
Baba N'Diaye Chelyabinsk Active 83 / 77 40% 3 30.03.2027 -
Will Lankshear Middlesbrough Active 124 / 124 40% 1 26.03.2027 -
Miloš Jovičić Zabbar St. Patrick Active 103 / 99 40% 1 25.03.2027 -
Wendell Livyi Bereh Active 88 / 103 40% 1 19.03.2027 -
Chineme Chinonso Ikorodu City Active 108 / 101 40% 1 13.03.2027 -
Dom Ballard Leyton Orient Active 121 / 124 40% 1 08.03.2027 -
Rocco Vata Watford Active 111 / 129 40% 1 01.03.2027 -
Lorenzo De Leo Renate Active 103 / 107 40% 1 01.03.2027 -
James Dornelly Peterborough United Active 108 / 115 40% 1 02.02.2027 -
Simphiwe Selepe Orlando Pirates Active 116 / 120 40% 1 02.02.2027 -
Lukas Görtler St. Gallen Active 127 / 131 44% 1 25.01.2027 -
Filippo Mané Borussia Dortmund Active 108 / 119 40% 1 25.01.2027 -
Arjan Malić Sturm Graz Active 107 / 128 40% 2 11.01.2027 -
Gizo Mamageishvili Sturm Graz Active 115 / 124 40% 1 31.12.2026 -
Derensili Sanches Fernandes Huddersfield Town Active 120 / 132 40% 1 30.12.2026 -
Tshepang Moremi Orlando Pirates Active 115 / 103 40% 2 28.12.2026 Needs More Info
Ronald Swansea City Active 112 / 124 40% 1 27.12.2026 -
Ethan Williams Peterborough United Active 109 / 125 40% 1 25.12.2026 -
Claudy M'Buyi Rapid Wien Active 126 / 119 40% 1 24.12.2026 -
Kwame Poku Queens Park Rangers Active 113 / 124 40% 1 23.12.2026 -
Xavier Amaechi Plymouth Argyle Active 108 / 102 40% 1 23.12.2026 -
Younes Ebnoutalib Eintracht Frankfurt Active 118 / 128 40% 2 20.12.2026 -
Sayfallah Ltaief Cracovia Active 146 / 133 40% 1 20.12.2026 -
Marcelo Allende Mamelodi Sundowns Active 109 / 120 40% 3 19.12.2026 -
Maurits Kjærgaard Red Bull Salzburg Active 133 / 127 40% 2 18.12.2026 -
Furkan Demir Rapid Wien Active 123 / 132 40% 3 16.12.2026 -
Angelo Gattermayer Wolfsberger AC Active 122 / 119 40% 2 16.12.2026 Needs More Info
Tobias Gulliksen Rapid Wien Active 130 / 119 40% 4 12.12.2026 -
Jonas Harder Basel Active 118 / 110 40% 1 12.12.2026 -
Mandla Erasmus SuperSport United Active 133 / 121 40% 4 10.12.2026 -
Jack Rudoni Coventry City Active 146 / 134 40% 1 09.12.2026 -
Giacomo Raspadori Atalanta Active 144 / 141 40% 2 08.12.2026 -
Finn Azaz Southampton Active 127 / 127 40% 1 08.12.2026 -
Seedy Jatta Sturm Graz Active 132 / 130 40% 3 06.12.2026 -
Daniel Kyerewaa Reading Active 126 / 116 40% 2 04.12.2026 -
Kasey McAteer Ipswich Town Active 126 / 129 40% 1 02.12.2026 -
Ibrahim Salah Basel Active 111 / 117 40% 2 28.11.2026 -
Matthias Seidl Rapid Wien Active 127 / 118 40% 1 27.11.2026 -
Alan Virginius Young Boys Active 114 / 125 40% 1 26.11.2026 -
Matvey Kislyak CSKA Moscow Active 154 / 145 40% 1 17.11.2026 -
Tim Drexler Red Bull Salzburg Active 127 / 124 40% 1 17.11.2026 -
Alan Lescano Argentinos Juniors Active 144 / 126 40% 2 13.11.2026 -
Christian Krasnodar Active 134 / 139 40% 1 12.11.2026 -
Oswin Appollis Orlando Pirates Active 128 / 120 40% 1 10.11.2026 -
Sota Kitano Luzern Active 108 / 124 40% 1 09.11.2026 Needs More Info
Bénie Traoré New York City Active 111 / 124 40% 1 02.11.2026 -
Keagan Tau Ajax Cape Town Active 75 / 90 40% 1 02.11.2026 -
Valmir Matoshi Sturm Graz Active 108 / 116 40% 1 31.10.2026 -
Yorbe Vertessen Red Bull Salzburg Active 125 / 134 40% 1 31.10.2026 -
Santiago Rodríguez Columbus Crew Active 109 / 139 40% 1 28.10.2026 -
Ammar Ramadan DAC Dunajska Streda Active 146 / 137 40% 1 21.10.2026 -
Donat Rrudhani Sion Active 127 / 117 40% 1 10.10.2026 -
Tomás Chancalay Minnesota United FC Active 133 / 117 40% 1 10.10.2026 -
Jesus Ferreira Seattle Sounders Active 148 / 129 40% 1 09.10.2026 -
Ludovit Reis Werder Bremen Active 122 / 131 40% 1 09.10.2026 -
Cheikh Sabaly Vancouver Whitecaps Active 114 / 129 40% 1 08.10.2026 -
Philip Otele Basel Active 117 / 124 40% 1 07.10.2026 -
Gabriel Pirani San Diego Football Club Active 117 / 140 40% 1 07.10.2026 -